createdAt,value
2023-12-14T00:00:06.163Z,3.53
2023-12-14T00:03:07.716Z,3.80
2023-12-14T00:06:09.332Z,4.70
2023-12-14T00:09:11.000Z,4.83
2023-12-14T00:12:12.527Z,3.70
2023-12-14T00:15:14.150Z,3.80
2023-12-14T00:18:15.761Z,5.03
2023-12-14T00:21:17.361Z,5.30
2023-12-14T00:24:18.962Z,5.70
2023-12-14T00:27:20.529Z,4.43
2023-12-14T00:30:22.177Z,3.60
2023-12-14T00:33:23.784Z,4.03
2023-12-14T00:36:25.424Z,4.37
2023-12-14T00:39:27.005Z,3.87
2023-12-14T00:42:28.568Z,4.00
2023-12-14T00:45:30.142Z,4.57
2023-12-14T00:48:31.722Z,4.73
2023-12-14T00:51:33.295Z,6.33
2023-12-14T00:54:34.858Z,4.87
2023-12-14T00:57:36.443Z,5.33
2023-12-14T01:00:37.986Z,4.27
2023-12-14T01:03:39.515Z,4.10
2023-12-14T01:06:41.121Z,3.90
2023-12-14T01:09:42.852Z,4.80
2023-12-14T01:12:44.415Z,4.47
2023-12-14T01:15:45.981Z,3.90
2023-12-14T01:18:47.722Z,4.43
2023-12-14T01:21:49.361Z,4.67
2023-12-14T01:24:50.913Z,5.00
2023-12-14T01:27:52.433Z,3.90
2023-12-14T01:30:54.044Z,4.67
2023-12-14T01:33:56.405Z,4.83
2023-12-14T01:36:58.028Z,5.17
2023-12-14T01:39:59.814Z,4.70
2023-12-14T01:43:01.413Z,4.83
2023-12-14T01:46:02.976Z,4.27
2023-12-14T01:49:04.684Z,5.43
2023-12-14T01:52:06.223Z,5.00
2023-12-14T01:55:07.797Z,4.87
2023-12-14T01:58:09.410Z,4.53
2023-12-14T02:01:11.264Z,4.80
2023-12-14T02:04:13.156Z,5.03
2023-12-14T02:07:14.846Z,5.50
2023-12-14T02:10:16.417Z,5.63
2023-12-14T02:13:17.978Z,7.33
2023-12-14T02:16:19.559Z,5.90
2023-12-14T02:19:21.166Z,5.10
2023-12-14T02:22:22.733Z,5.30
2023-12-14T02:25:24.309Z,5.43
2023-12-14T02:28:25.904Z,4.93
2023-12-14T02:31:27.550Z,5.30
2023-12-14T02:34:29.149Z,4.60
2023-12-14T02:37:30.692Z,4.60
2023-12-14T02:40:32.555Z,5.53
2023-12-14T02:43:34.136Z,5.53
2023-12-14T02:46:35.927Z,6.40
2023-12-14T02:49:37.523Z,5.40
2023-12-14T02:52:39.324Z,5.87
2023-12-14T02:55:41.105Z,5.83
2023-12-14T02:58:42.738Z,4.17
2023-12-14T03:01:44.350Z,4.97
2023-12-14T03:04:45.954Z,5.87
2023-12-14T03:07:47.571Z,5.67
2023-12-14T03:10:49.151Z,5.47
2023-12-14T03:13:50.786Z,5.93
2023-12-14T03:16:52.365Z,4.83
2023-12-14T03:19:53.998Z,5.10
2023-12-14T03:22:58.072Z,6.47
2023-12-14T03:25:59.670Z,4.70
2023-12-14T03:29:01.323Z,5.23
2023-12-14T03:32:03.098Z,6.60
2023-12-14T03:35:04.787Z,6.23
2023-12-14T03:38:06.498Z,6.07
2023-12-14T03:41:08.246Z,4.97
2023-12-14T03:44:09.938Z,4.03
2023-12-14T03:47:11.618Z,5.00
2023-12-14T03:50:13.358Z,4.40
2023-12-14T03:53:15.032Z,4.23
2023-12-14T03:56:16.648Z,3.73
2023-12-14T03:59:18.292Z,3.30
2023-12-14T04:02:19.943Z,3.80
2023-12-14T04:05:21.655Z,3.60
2023-12-14T04:08:23.312Z,4.63
2023-12-14T04:11:25.016Z,3.43
2023-12-14T04:14:26.640Z,5.10
2023-12-14T04:17:28.257Z,4.10
2023-12-14T04:20:29.802Z,4.43
2023-12-14T04:23:31.401Z,4.17
2023-12-14T04:26:32.980Z,2.80
2023-12-14T04:29:34.543Z,3.63
2023-12-14T04:32:36.293Z,3.60
2023-12-14T04:35:38.161Z,4.70
2023-12-14T04:38:39.759Z,3.37
2023-12-14T04:41:41.348Z,5.57
2023-12-14T04:44:42.951Z,3.50
2023-12-14T04:47:44.540Z,4.27
2023-12-14T04:50:46.128Z,3.30
2023-12-14T04:53:47.675Z,3.37
2023-12-14T04:56:49.248Z,4.13
2023-12-14T04:59:50.802Z,4.13
2023-12-14T05:02:52.430Z,3.27
2023-12-14T05:05:54.070Z,3.70
2023-12-14T05:08:55.791Z,4.17
2023-12-14T05:11:57.403Z,4.10
2023-12-14T05:14:58.951Z,3.83
2023-12-14T05:18:00.654Z,4.47
2023-12-14T05:21:02.297Z,4.67
2023-12-14T05:24:03.861Z,3.17
2023-12-14T05:27:05.417Z,3.97
2023-12-14T05:30:07.009Z,3.50
2023-12-14T05:33:11.054Z,6.23
2023-12-14T05:36:14.316Z,3.90
2023-12-14T05:39:15.976Z,4.43
2023-12-14T05:42:17.541Z,5.50
2023-12-14T05:45:19.192Z,4.00
2023-12-14T05:48:20.911Z,5.23
2023-12-14T05:51:22.511Z,4.33
2023-12-14T05:54:24.116Z,4.67
2023-12-14T05:57:25.700Z,5.33
2023-12-14T06:00:27.467Z,4.13
2023-12-14T06:03:29.074Z,4.47
2023-12-14T06:06:30.665Z,5.20
2023-12-14T06:09:33.440Z,3.90
2023-12-14T06:12:35.238Z,3.97
2023-12-14T06:15:36.949Z,4.80
2023-12-14T06:18:38.579Z,5.50
2023-12-14T06:21:40.332Z,6.27
2023-12-14T06:24:42.201Z,4.30
2023-12-14T06:27:43.758Z,5.50
2023-12-14T06:30:45.407Z,7.33
2023-12-14T06:33:50.099Z,4.83
2023-12-14T06:36:54.705Z,4.33
2023-12-14T06:39:56.275Z,5.50
2023-12-14T06:42:57.871Z,7.83
2023-12-14T06:45:59.491Z,5.27
2023-12-14T06:49:01.232Z,3.90
2023-12-14T06:52:02.842Z,4.90
2023-12-14T06:55:04.423Z,6.50
2023-12-14T06:58:06.000Z,6.17
2023-12-14T07:01:07.600Z,6.30
2023-12-14T07:04:09.193Z,6.53
2023-12-14T07:07:11.031Z,4.77
2023-12-14T07:10:12.608Z,4.93
2023-12-14T07:13:14.193Z,4.97
2023-12-14T07:16:15.799Z,4.97
2023-12-14T07:19:17.365Z,4.93
2023-12-14T07:22:18.911Z,5.10
2023-12-14T07:25:20.516Z,6.60
2023-12-14T07:28:22.148Z,3.50
2023-12-14T07:31:23.795Z,5.37
2023-12-14T07:34:25.406Z,6.50
2023-12-14T07:37:26.981Z,4.90
2023-12-14T07:40:28.586Z,5.47
2023-12-14T07:43:30.249Z,4.90
2023-12-14T07:46:31.854Z,8.30
2023-12-14T07:49:33.457Z,5.50
2023-12-14T07:52:36.217Z,6.43
2023-12-14T07:55:38.053Z,6.80
2023-12-14T07:58:39.639Z,5.73
2023-12-14T08:01:41.399Z,5.43
2023-12-14T08:04:43.012Z,6.10
2023-12-14T08:07:44.683Z,4.73
2023-12-14T08:10:46.765Z,5.67
2023-12-14T08:13:48.357Z,4.47
2023-12-14T08:16:50.020Z,4.93
2023-12-14T08:19:51.681Z,6.60
2023-12-14T08:22:53.340Z,4.47
2023-12-14T08:25:55.044Z,5.00
2023-12-14T08:28:56.667Z,5.77
2023-12-14T08:31:58.471Z,6.90
2023-12-14T08:35:00.224Z,5.60
2023-12-14T08:38:01.946Z,5.13
2023-12-14T08:41:03.690Z,6.17
2023-12-14T08:44:05.517Z,5.23
2023-12-14T08:47:07.216Z,5.50
2023-12-14T08:50:08.827Z,6.33
2023-12-14T08:53:10.503Z,6.67
2023-12-14T08:56:12.453Z,6.20
2023-12-14T08:59:14.136Z,6.73
2023-12-14T09:02:15.984Z,5.50
2023-12-14T09:05:20.622Z,7.30
2023-12-14T09:08:25.331Z,4.83
2023-12-14T09:11:26.932Z,5.87
2023-12-14T09:14:28.781Z,6.37
2023-12-14T09:17:31.639Z,5.53
2023-12-14T09:20:34.129Z,6.23
2023-12-14T09:23:35.699Z,4.50
2023-12-14T09:26:37.282Z,6.03
2023-12-14T09:29:38.846Z,5.30
2023-12-14T09:32:40.501Z,6.93
2023-12-14T09:35:42.292Z,7.33
2023-12-14T09:38:43.909Z,8.73
2023-12-14T09:41:45.532Z,4.83
2023-12-14T09:44:47.198Z,6.33
2023-12-14T09:47:49.063Z,7.30
2023-12-14T09:50:50.846Z,6.57
2023-12-14T09:53:52.408Z,6.77
2023-12-14T09:56:54.105Z,6.00
2023-12-14T09:59:55.688Z,6.33
2023-12-14T10:02:57.306Z,6.47
2023-12-14T10:05:59.122Z,6.57
2023-12-14T10:09:00.803Z,6.43
2023-12-14T10:12:02.420Z,5.60
2023-12-14T10:15:04.194Z,5.43
2023-12-14T10:18:05.855Z,7.47
2023-12-14T10:21:07.852Z,7.57
2023-12-14T10:24:09.468Z,7.23
2023-12-14T10:27:11.129Z,8.00
2023-12-14T10:30:12.818Z,4.83
2023-12-14T10:33:14.425Z,6.73
2023-12-14T10:36:16.071Z,8.00
2023-12-14T10:39:17.659Z,6.63
2023-12-14T10:42:21.179Z,7.27
2023-12-14T10:45:25.645Z,7.97
2023-12-14T10:48:28.122Z,6.13
2023-12-14T10:51:29.775Z,9.03
2023-12-14T10:54:31.520Z,7.43
2023-12-14T10:57:33.463Z,7.10
2023-12-14T11:00:38.069Z,6.93
2023-12-14T11:03:39.695Z,7.17
2023-12-14T11:06:41.283Z,6.00
2023-12-14T11:09:45.224Z,6.13
2023-12-14T11:12:46.813Z,7.17
2023-12-14T11:15:48.434Z,6.60
2023-12-14T11:18:50.092Z,6.87
2023-12-14T11:21:51.762Z,6.23
2023-12-14T11:24:53.364Z,7.83
2023-12-14T11:27:54.892Z,6.53
2023-12-14T11:30:56.830Z,6.77
2023-12-14T11:33:58.803Z,13.30
2023-12-14T11:37:00.451Z,5.73
2023-12-14T11:40:02.010Z,7.57
2023-12-14T11:43:03.573Z,6.63
2023-12-14T11:46:05.129Z,5.73
2023-12-14T11:49:06.832Z,5.97
2023-12-14T11:52:08.589Z,7.37
2023-12-14T11:55:10.204Z,4.87
2023-12-14T11:58:11.794Z,5.33
2023-12-14T12:01:13.488Z,7.50
2023-12-14T12:04:15.159Z,6.93
2023-12-14T12:07:16.891Z,8.10
2023-12-14T12:10:18.485Z,5.40
2023-12-14T12:13:20.011Z,6.83
2023-12-14T12:16:21.811Z,6.83
2023-12-14T12:19:23.452Z,8.17
2023-12-14T12:22:25.044Z,5.87
2023-12-14T12:25:28.601Z,5.40
2023-12-14T12:28:30.257Z,7.40
2023-12-14T12:31:31.812Z,6.70
2023-12-14T12:34:33.426Z,7.63
2023-12-14T12:37:35.314Z,7.40
2023-12-14T12:40:36.986Z,6.87
2023-12-14T12:43:38.620Z,7.03
2023-12-14T12:46:40.233Z,5.30
2023-12-14T12:49:42.046Z,4.93
2023-12-14T12:52:43.768Z,5.87
2023-12-14T12:55:45.521Z,5.53
2023-12-14T12:58:47.120Z,5.23
2023-12-14T13:01:48.959Z,5.60
2023-12-14T13:04:50.633Z,5.77
2023-12-14T13:07:52.214Z,5.70
2023-12-14T13:10:55.860Z,4.80
2023-12-14T13:13:57.984Z,5.87
2023-12-14T13:16:59.725Z,5.40
2023-12-14T13:20:01.375Z,4.20
2023-12-14T13:23:06.239Z,4.83
2023-12-14T13:26:07.949Z,4.97
2023-12-14T13:29:09.602Z,5.33
2023-12-14T13:32:14.245Z,8.67
2023-12-14T13:35:15.996Z,6.30
2023-12-14T13:38:17.797Z,4.57
2023-12-14T13:41:19.460Z,6.40
2023-12-14T13:44:21.103Z,6.37
2023-12-14T13:47:22.907Z,6.07
2023-12-14T13:50:24.616Z,5.43
2023-12-14T13:53:26.255Z,5.43
2023-12-14T13:56:27.936Z,7.33
2023-12-14T13:59:29.511Z,6.30
2023-12-14T14:02:31.177Z,6.73
2023-12-14T14:05:32.922Z,6.03
2023-12-14T14:08:34.711Z,4.07
2023-12-14T14:11:36.502Z,5.23
2023-12-14T14:14:38.144Z,5.77
2023-12-14T14:17:39.795Z,5.20
2023-12-14T14:20:41.410Z,4.17
2023-12-14T14:27:09.053Z,7.50
2023-12-14T14:30:10.899Z,6.33
2023-12-14T14:33:12.820Z,7.97
2023-12-14T14:36:14.509Z,5.57
2023-12-14T14:39:16.084Z,5.37
2023-12-14T14:42:17.674Z,7.77
2023-12-14T14:45:19.287Z,5.37
2023-12-14T14:48:20.964Z,6.40
2023-12-14T14:51:22.604Z,6.07
2023-12-14T14:54:24.136Z,6.73
2023-12-14T14:57:25.702Z,6.03
2023-12-14T15:00:27.272Z,5.87
2023-12-14T15:03:28.868Z,5.47
2023-12-14T15:06:30.518Z,6.07
2023-12-14T15:09:32.096Z,7.37
2023-12-14T15:12:33.982Z,4.67
2023-12-14T15:15:35.715Z,5.93
2023-12-14T15:18:37.383Z,6.57
2023-12-14T15:21:38.966Z,5.60
2023-12-14T15:24:40.561Z,7.17
2023-12-14T15:27:42.126Z,6.27
2023-12-14T15:30:43.805Z,8.73
2023-12-14T15:33:45.492Z,6.87
2023-12-14T15:36:47.175Z,5.87
2023-12-14T15:39:48.772Z,7.33
2023-12-14T15:42:50.396Z,6.20
2023-12-14T15:45:52.029Z,6.20
2023-12-14T15:48:53.672Z,7.73
2023-12-14T15:51:58.164Z,6.43
2023-12-14T15:54:59.761Z,7.13
2023-12-14T15:58:01.333Z,6.33
2023-12-14T16:01:03.011Z,6.23
2023-12-14T16:04:04.609Z,7.40
2023-12-14T16:07:06.174Z,7.17
2023-12-14T16:10:07.764Z,4.97
2023-12-14T16:13:09.419Z,6.93
2023-12-14T16:16:10.951Z,6.67
2023-12-14T16:19:12.582Z,6.17
2023-12-14T16:22:14.188Z,7.63
2023-12-14T16:25:15.720Z,7.00
2023-12-14T16:28:17.308Z,7.53
2023-12-14T16:31:18.856Z,8.10
2023-12-14T16:34:20.572Z,6.00
2023-12-14T16:37:22.278Z,5.80
2023-12-14T16:40:24.001Z,6.87
2023-12-14T16:43:25.565Z,7.77
2023-12-14T16:46:27.141Z,6.77
2023-12-14T16:49:28.749Z,5.97
2023-12-14T16:52:30.337Z,7.23
2023-12-14T16:55:31.905Z,7.53
2023-12-14T16:58:33.544Z,8.03
2023-12-14T17:01:35.156Z,6.60
2023-12-14T17:04:36.717Z,7.80
2023-12-14T17:07:38.335Z,5.93
2023-12-14T17:10:39.888Z,7.67
2023-12-14T17:13:41.532Z,7.03
2023-12-14T17:16:43.177Z,5.80
2023-12-14T17:19:44.905Z,6.60
2023-12-14T17:22:46.621Z,7.23
2023-12-14T17:25:48.289Z,8.03
2023-12-14T17:28:49.914Z,6.87
2023-12-14T17:31:51.697Z,6.77
2023-12-14T17:34:53.426Z,7.97
2023-12-14T17:37:55.067Z,9.00
2023-12-14T17:40:56.705Z,7.87
2023-12-14T17:43:58.333Z,6.97
2023-12-14T17:47:00.880Z,7.13
2023-12-14T17:50:02.552Z,9.33
2023-12-14T17:53:04.218Z,6.50
2023-12-14T17:56:05.977Z,6.93
2023-12-14T17:59:07.672Z,7.00
2023-12-14T18:02:09.368Z,8.10
2023-12-14T18:05:11.129Z,6.43
2023-12-14T18:08:12.795Z,6.87
2023-12-14T18:11:14.441Z,8.47
2023-12-14T18:14:16.213Z,8.13
2023-12-14T18:17:19.099Z,7.10
2023-12-14T18:20:20.811Z,8.40
2023-12-14T18:23:22.528Z,8.13
2023-12-14T18:26:24.238Z,7.10
2023-12-14T18:29:25.944Z,8.13
2023-12-14T18:32:27.683Z,8.07
2023-12-14T18:35:29.398Z,6.43
2023-12-14T18:38:31.108Z,7.60
2023-12-14T18:41:32.829Z,7.53
2023-12-14T18:44:34.440Z,8.37
2023-12-14T18:47:36.395Z,7.37
2023-12-14T18:50:38.274Z,9.10
2023-12-14T18:53:39.887Z,6.23
2023-12-14T18:56:41.536Z,8.70
2023-12-14T18:59:43.139Z,7.33
2023-12-14T19:02:44.702Z,5.90
2023-12-14T19:05:46.344Z,9.60
2023-12-14T19:08:47.984Z,8.10
2023-12-14T19:11:49.544Z,7.23
2023-12-14T19:14:51.153Z,7.37
2023-12-14T19:17:54.551Z,6.57
2023-12-14T19:20:56.151Z,8.03
2023-12-14T19:23:57.724Z,7.07
2023-12-14T19:26:59.318Z,8.47
2023-12-14T19:30:00.942Z,9.27
2023-12-14T19:33:02.645Z,8.47
2023-12-14T19:36:04.375Z,7.67
2023-12-14T19:39:05.993Z,8.33
2023-12-14T19:42:07.551Z,9.77
2023-12-14T19:45:09.150Z,8.50
2023-12-14T19:48:10.819Z,8.03
2023-12-14T19:51:12.547Z,7.40
2023-12-14T19:54:14.221Z,5.40
2023-12-14T19:57:15.824Z,8.03
2023-12-14T20:00:17.415Z,9.63
2023-12-14T20:03:20.697Z,6.43
2023-12-14T20:06:22.411Z,6.53
2023-12-14T20:09:24.017Z,7.57
2023-12-14T20:12:25.663Z,6.80
2023-12-14T20:15:27.885Z,6.57
2023-12-14T20:18:29.575Z,9.23
2023-12-14T20:21:31.234Z,8.33
2023-12-14T20:24:32.759Z,6.87
2023-12-14T20:27:34.652Z,6.43
2023-12-14T20:30:36.353Z,7.40
2023-12-14T20:33:37.937Z,8.23
2023-12-14T20:36:39.566Z,7.90
2023-12-14T20:39:41.112Z,6.13
2023-12-14T20:42:42.739Z,10.63
2023-12-14T20:45:44.340Z,7.17
2023-12-14T20:48:46.029Z,5.70
2023-12-14T20:51:47.665Z,7.57
2023-12-14T20:54:49.248Z,7.23
2023-12-14T20:57:50.833Z,6.73
2023-12-14T21:00:52.463Z,9.40
2023-12-14T21:03:54.203Z,9.50
2023-12-14T21:06:55.974Z,9.23
2023-12-14T21:09:57.590Z,9.27
2023-12-14T21:12:59.193Z,8.93
2023-12-14T21:16:00.755Z,10.40
2023-12-14T21:19:02.459Z,11.53
2023-12-14T21:22:04.121Z,11.93
2023-12-14T21:25:05.775Z,10.83
2023-12-14T21:28:07.476Z,12.63
2023-12-14T21:31:09.081Z,15.50
2023-12-14T21:34:10.818Z,13.43
2023-12-14T21:37:12.481Z,14.67
2023-12-14T21:40:14.067Z,12.60
2023-12-14T21:43:15.708Z,11.43
2023-12-14T21:46:17.292Z,10.47
2023-12-14T21:49:22.078Z,11.33
2023-12-14T21:52:23.678Z,12.47
2023-12-14T21:55:25.219Z,9.87
2023-12-14T21:58:28.784Z,12.60
2023-12-14T22:01:30.306Z,11.40
2023-12-14T22:04:32.009Z,9.07
2023-12-14T22:07:33.705Z,10.13
2023-12-14T22:10:35.320Z,11.30
2023-12-14T22:13:36.864Z,9.03
2023-12-14T22:16:38.384Z,8.90
2023-12-14T22:19:39.945Z,9.23
2023-12-14T22:22:41.567Z,8.03
2023-12-14T22:25:43.220Z,8.27
2023-12-14T22:28:44.823Z,9.53
2023-12-14T22:31:46.510Z,7.70
2023-12-14T22:34:48.174Z,7.47
2023-12-14T22:37:49.944Z,8.77
2023-12-14T22:40:51.583Z,9.33
2023-12-14T22:43:53.204Z,8.27
2023-12-14T22:46:54.893Z,11.50
2023-12-14T22:49:56.496Z,8.97
2023-12-14T22:52:58.133Z,10.40
2023-12-14T22:55:59.777Z,9.23
2023-12-14T22:59:01.458Z,11.63
2023-12-14T23:02:03.105Z,9.13
2023-12-14T23:05:04.682Z,12.57
2023-12-14T23:08:06.367Z,8.93
2023-12-14T23:11:08.041Z,10.60
2023-12-14T23:14:09.816Z,8.37
2023-12-14T23:17:14.370Z,9.40
2023-12-14T23:20:16.092Z,11.07
2023-12-14T23:23:17.688Z,9.87
2023-12-14T23:26:19.384Z,9.17
2023-12-14T23:29:21.064Z,11.00
2023-12-14T23:32:22.643Z,9.83
2023-12-14T23:35:24.426Z,11.43
2023-12-14T23:38:26.058Z,10.17
2023-12-14T23:41:27.865Z,9.23
2023-12-14T23:44:29.538Z,10.57
2023-12-14T23:47:31.191Z,10.70
2023-12-14T23:50:32.879Z,9.80
2023-12-14T23:53:34.613Z,10.10
2023-12-14T23:56:43.827Z,11.03
2023-12-14T23:59:45.406Z,12.23
